DFELB EDDN-EDDS
Flight info
| Callsign | DFELB |
|---|---|
| Flight time | 0h 24m |
| Altitude | 20000 |
| Route | BOLSI1G BOLSI Y166 DKB Z818 GEBNO T726 LBU |
| Aircraft | TBM9/L-SDFGRWY/S |
Departure
| Time | 2026-05-05 15:15 |
|---|---|
| Airport | Nuremberg Airport (EDDN) |
Arrival
| Time | 2026-05-05 15:40 |
|---|---|
| Airport | Stuttgart Airport (EDDS) |
| Time | Latitude | Longitude | Altitude | Speed | Heading |
|---|---|---|---|---|---|
| 2026-05-05 14:54 | 49.49419 | 11.06865 | 1021 ft | 0 kts | 278° |
| 2026-05-05 15:03 | 49.49419 | 11.06867 | 1021 ft | 3 kts | 278° |
| 2026-05-05 15:03 | 49.49418 | 11.06890 | 1021 ft | 3 kts | 297° |
| 2026-05-05 15:04 | 49.49457 | 11.06904 | 1021 ft | 8 kts | 18° |
| 2026-05-05 15:04 | 49.49480 | 11.06915 | 1021 ft | 0 kts | 17° |
| 2026-05-05 15:05 | 49.49481 | 11.06915 | 1021 ft | 0 kts | 14° |
| 2026-05-05 15:05 | 49.49523 | 11.06930 | 1021 ft | 9 kts | 84° |
| 2026-05-05 15:06 | 49.49514 | 11.07032 | 1021 ft | 11 kts | 99° |
| 2026-05-05 15:06 | 49.49510 | 11.07162 | 1021 ft | 13 kts | 44° |
| 2026-05-05 15:06 | 49.49589 | 11.07192 | 1021 ft | 12 kts | 21° |
| 2026-05-05 15:06 | 49.49682 | 11.07230 | 1018 ft | 7 kts | 5° |
| 2026-05-05 15:07 | 49.49726 | 11.07287 | 1017 ft | 10 kts | 77° |
| 2026-05-05 15:07 | 49.49717 | 11.07408 | 1018 ft | 13 kts | 99° |
| 2026-05-05 15:07 | 49.49702 | 11.07553 | 1019 ft | 15 kts | 98° |
| 2026-05-05 15:07 | 49.49683 | 11.07712 | 1021 ft | 16 kts | 102° |
| 2026-05-05 15:08 | 49.49595 | 11.07786 | 1022 ft | 16 kts | 134° |
| 2026-05-05 15:08 | 49.49578 | 11.07859 | 1022 ft | 17 kts | 100° |
| 2026-05-05 15:08 | 49.49559 | 11.08050 | 1023 ft | 19 kts | 92° |
| 2026-05-05 15:08 | 49.49542 | 11.08259 | 1023 ft | 21 kts | 101° |
| 2026-05-05 15:09 | 49.49616 | 11.08385 | 1028 ft | 17 kts | 59° |
| 2026-05-05 15:09 | 49.49607 | 11.08535 | 1030 ft | 15 kts | 110° |
| 2026-05-05 15:09 | 49.49587 | 11.08687 | 1031 ft | 15 kts | 98° |
| 2026-05-05 15:09 | 49.49586 | 11.08698 | 1031 ft | 0 kts | 97° |
| 2026-05-05 15:10 | 49.49586 | 11.08701 | 1031 ft | 4 kts | 96° |
| 2026-05-05 15:10 | 49.49582 | 11.08796 | 1032 ft | 11 kts | 93° |
| 2026-05-05 15:10 | 49.49570 | 11.08927 | 1033 ft | 13 kts | 96° |
| 2026-05-05 15:11 | 49.49550 | 11.09072 | 1035 ft | 14 kts | 101° |
| 2026-05-05 15:11 | 49.49539 | 11.09184 | 1037 ft | 0 kts | 96° |
| 2026-05-05 15:14 | 49.49536 | 11.09245 | 1038 ft | 21 kts | 95° |
| 2026-05-05 15:14 | 49.49601 | 11.09499 | 1045 ft | 28 kts | 49° |
| 2026-05-05 15:14 | 49.49708 | 11.09453 | 1046 ft | 30 kts | 275° |
| 2026-05-05 15:15 | 49.49760 | 11.08773 | 1070 ft | 96 kts | 274° |
| 2026-05-05 15:15 | 49.49901 | 11.07647 | 1363 ft | 125 kts | 284° |
| 2026-05-05 15:15 | 49.50095 | 11.06269 | 1750 ft | 148 kts | 282° |
| 2026-05-05 15:15 | 49.50330 | 11.04583 | 1990 ft | 172 kts | 281° |
| 2026-05-05 15:16 | 49.50467 | 11.02675 | 2281 ft | 183 kts | 275° |
| 2026-05-05 15:16 | 49.50588 | 11.00691 | 2645 ft | 187 kts | 277° |
| 2026-05-05 15:16 | 49.50770 | 10.98701 | 3003 ft | 187 kts | 279° |
| 2026-05-05 15:16 | 49.50961 | 10.96752 | 3333 ft | 189 kts | 278° |
| 2026-05-05 15:17 | 49.51160 | 10.94690 | 3666 ft | 200 kts | 277° |
| 2026-05-05 15:17 | 49.51129 | 10.92508 | 4011 ft | 211 kts | 258° |
| 2026-05-05 15:17 | 49.50604 | 10.90356 | 4356 ft | 218 kts | 244° |
| 2026-05-05 15:17 | 49.49936 | 10.88243 | 4711 ft | 221 kts | 244° |
| 2026-05-05 15:18 | 49.49281 | 10.86093 | 5048 ft | 222 kts | 244° |
| 2026-05-05 15:18 | 49.48624 | 10.83953 | 5399 ft | 218 kts | 243° |
| 2026-05-05 15:18 | 49.47969 | 10.81855 | 5754 ft | 217 kts | 244° |
| 2026-05-05 15:18 | 49.47313 | 10.79805 | 6101 ft | 216 kts | 238° |
| 2026-05-05 15:19 | 49.46347 | 10.78059 | 6432 ft | 215 kts | 220° |
| 2026-05-05 15:19 | 49.45099 | 10.76833 | 6765 ft | 213 kts | 203° |
| 2026-05-05 15:19 | 49.43652 | 10.76213 | 6943 ft | 222 kts | 187° |
| 2026-05-05 15:19 | 49.42057 | 10.76155 | 6949 ft | 234 kts | 181° |
| 2026-05-05 15:20 | 49.40399 | 10.76125 | 6958 ft | 240 kts | 182° |
| 2026-05-05 15:20 | 49.38769 | 10.75638 | 6970 ft | 242 kts | 206° |
| 2026-05-05 15:20 | 49.37439 | 10.74050 | 6972 ft | 244 kts | 223° |
| 2026-05-05 15:20 | 49.36261 | 10.72256 | 7231 ft | 234 kts | 224° |
| 2026-05-05 15:21 | 49.35136 | 10.70515 | 7653 ft | 224 kts | 224° |
| 2026-05-05 15:21 | 49.34057 | 10.68827 | 8086 ft | 219 kts | 224° |
| 2026-05-05 15:21 | 49.33014 | 10.67183 | 8512 ft | 215 kts | 224° |
| 2026-05-05 15:21 | 49.31977 | 10.65539 | 8951 ft | 214 kts | 224° |
| 2026-05-05 15:22 | 49.30947 | 10.63896 | 9401 ft | 213 kts | 224° |
| 2026-05-05 15:22 | 49.29929 | 10.62261 | 9845 ft | 212 kts | 224° |
| 2026-05-05 15:22 | 49.28911 | 10.60623 | 10258 ft | 211 kts | 224° |
| 2026-05-05 15:22 | 49.27898 | 10.58999 | 10661 ft | 210 kts | 224° |
| 2026-05-05 15:23 | 49.26880 | 10.57372 | 11080 ft | 211 kts | 224° |
| 2026-05-05 15:23 | 49.25863 | 10.55746 | 11501 ft | 211 kts | 224° |
| 2026-05-05 15:23 | 49.24846 | 10.54121 | 11933 ft | 211 kts | 224° |
| 2026-05-05 15:23 | 49.23808 | 10.52469 | 12022 ft | 226 kts | 224° |
| 2026-05-05 15:24 | 49.22686 | 10.50679 | 12031 ft | 239 kts | 225° |
| 2026-05-05 15:24 | 49.21524 | 10.48819 | 12033 ft | 245 kts | 225° |
| 2026-05-05 15:24 | 49.20337 | 10.46916 | 12029 ft | 248 kts | 225° |
| 2026-05-05 15:24 | 49.19140 | 10.45003 | 12031 ft | 249 kts | 225° |
| 2026-05-05 15:25 | 49.17932 | 10.43081 | 12030 ft | 251 kts | 225° |
| 2026-05-05 15:25 | 49.16723 | 10.41157 | 12030 ft | 251 kts | 225° |
| 2026-05-05 15:25 | 49.15523 | 10.39258 | 12029 ft | 252 kts | 225° |
| 2026-05-05 15:25 | 49.14294 | 10.37305 | 11785 ft | 260 kts | 225° |
| 2026-05-05 15:26 | 49.13021 | 10.35276 | 11417 ft | 267 kts | 225° |
| 2026-05-05 15:26 | 49.11733 | 10.33218 | 11048 ft | 269 kts | 225° |
| 2026-05-05 15:26 | 49.10439 | 10.31156 | 10677 ft | 269 kts | 225° |
| 2026-05-05 15:26 | 49.09143 | 10.29100 | 10315 ft | 268 kts | 225° |
| 2026-05-05 15:27 | 49.07847 | 10.27050 | 9954 ft | 268 kts | 225° |
| 2026-05-05 15:27 | 49.06551 | 10.25004 | 9582 ft | 268 kts | 225° |
| 2026-05-05 15:27 | 49.05255 | 10.22970 | 9181 ft | 266 kts | 225° |
| 2026-05-05 15:27 | 49.03971 | 10.20969 | 9019 ft | 258 kts | 225° |
| 2026-05-05 15:28 | 49.02723 | 10.19050 | 9019 ft | 251 kts | 224° |
| 2026-05-05 15:28 | 49.01486 | 10.17189 | 9012 ft | 250 kts | 225° |
| 2026-05-05 15:28 | 49.00225 | 10.15362 | 9131 ft | 250 kts | 224° |
| 2026-05-05 15:28 | 48.98963 | 10.13530 | 9155 ft | 253 kts | 224° |
| 2026-05-05 15:29 | 48.97702 | 10.11692 | 9156 ft | 255 kts | 225° |
| 2026-05-05 15:29 | 48.96409 | 10.09805 | 9154 ft | 257 kts | 225° |
| 2026-05-05 15:29 | 48.95114 | 10.07914 | 9158 ft | 258 kts | 225° |
| 2026-05-05 15:29 | 48.93992 | 10.05796 | 9167 ft | 257 kts | 238° |
| 2026-05-05 15:30 | 48.93066 | 10.03458 | 9167 ft | 258 kts | 240° |
| 2026-05-05 15:30 | 48.92172 | 10.01137 | 9167 ft | 258 kts | 240° |
| 2026-05-05 15:30 | 48.91262 | 9.98766 | 9166 ft | 258 kts | 240° |
| 2026-05-05 15:30 | 48.90357 | 9.96400 | 9168 ft | 258 kts | 240° |
| 2026-05-05 15:31 | 48.89454 | 9.94036 | 9168 ft | 258 kts | 240° |
| 2026-05-05 15:31 | 48.88547 | 9.91670 | 9166 ft | 259 kts | 240° |
| 2026-05-05 15:31 | 48.87635 | 9.89284 | 9033 ft | 264 kts | 240° |
| 2026-05-05 15:31 | 48.86715 | 9.86860 | 8713 ft | 270 kts | 241° |
| 2026-05-05 15:32 | 48.85785 | 9.84390 | 8387 ft | 268 kts | 241° |
| 2026-05-05 15:32 | 48.84855 | 9.81941 | 8060 ft | 266 kts | 241° |
| 2026-05-05 15:32 | 48.83929 | 9.79512 | 7733 ft | 265 kts | 241° |
| 2026-05-05 15:32 | 48.83006 | 9.77085 | 7404 ft | 265 kts | 240° |
| 2026-05-05 15:33 | 48.82086 | 9.74673 | 7093 ft | 263 kts | 241° |
| 2026-05-05 15:33 | 48.81184 | 9.72320 | 7065 ft | 253 kts | 240° |
| 2026-05-05 15:33 | 48.80334 | 9.70053 | 7060 ft | 248 kts | 240° |
| 2026-05-05 15:33 | 48.79465 | 9.67795 | 7058 ft | 246 kts | 240° |
| 2026-05-05 15:34 | 48.78598 | 9.65542 | 6933 ft | 249 kts | 240° |
| 2026-05-05 15:34 | 48.77713 | 9.63229 | 6532 ft | 257 kts | 241° |
| 2026-05-05 15:34 | 48.76823 | 9.60886 | 6129 ft | 255 kts | 241° |
| 2026-05-05 15:34 | 48.75958 | 9.58569 | 5735 ft | 255 kts | 242° |
| 2026-05-05 15:35 | 48.75126 | 9.56200 | 5334 ft | 254 kts | 243° |
| 2026-05-05 15:35 | 48.74343 | 9.53837 | 5166 ft | 245 kts | 245° |
| 2026-05-05 15:35 | 48.73691 | 9.51618 | 5158 ft | 219 kts | 257° |
| 2026-05-05 15:35 | 48.73555 | 9.49350 | 4959 ft | 216 kts | 269° |
| 2026-05-05 15:36 | 48.73475 | 9.47055 | 4594 ft | 219 kts | 265° |
| 2026-05-05 15:36 | 48.73244 | 9.44706 | 3727 ft | 234 kts | 259° |
| 2026-05-05 15:36 | 48.72855 | 9.42338 | 3273 ft | 225 kts | 256° |
| 2026-05-05 15:36 | 48.72427 | 9.40151 | 3144 ft | 212 kts | 252° |
| 2026-05-05 15:37 | 48.71971 | 9.38122 | 3253 ft | 197 kts | 250° |
| 2026-05-05 15:37 | 48.71550 | 9.36221 | 3355 ft | 177 kts | 255° |
| 2026-05-05 15:37 | 48.71296 | 9.34532 | 3329 ft | 153 kts | 258° |
| 2026-05-05 15:37 | 48.71061 | 9.33140 | 3295 ft | 124 kts | 255° |
| 2026-05-05 15:38 | 48.70822 | 9.31904 | 3028 ft | 122 kts | 255° |
| 2026-05-05 15:38 | 48.70573 | 9.30590 | 2474 ft | 140 kts | 255° |
| 2026-05-05 15:38 | 48.70326 | 9.29179 | 2112 ft | 126 kts | 255° |
| 2026-05-05 15:38 | 48.70098 | 9.28090 | 1823 ft | 100 kts | 257° |
| 2026-05-05 15:39 | 48.69926 | 9.27132 | 1699 ft | 90 kts | 254° |
| 2026-05-05 15:39 | 48.69738 | 9.26217 | 1539 ft | 91 kts | 254° |
| 2026-05-05 15:39 | 48.69567 | 9.25299 | 1408 ft | 90 kts | 252° |
| 2026-05-05 15:39 | 48.69415 | 9.24407 | 1299 ft | 87 kts | 253° |
| 2026-05-05 15:40 | 48.69267 | 9.23653 | 1280 ft | 40 kts | 253° |
| 2026-05-05 15:40 | 48.69203 | 9.23294 | 1280 ft | 30 kts | 265° |
| 2026-05-05 15:40 | 48.69281 | 9.23185 | 1280 ft | 0 kts | 343° |
| 2026-05-05 15:41 | 48.69297 | 9.23176 | 1280 ft | 6 kts | 336° |
| 2026-05-05 15:41 | 48.69324 | 9.23080 | 1280 ft | 10 kts | 253° |
| 2026-05-05 15:42 | 48.69310 | 9.23008 | 1280 ft | 11 kts | 262° |
| 2026-05-05 15:42 | 48.69293 | 9.22880 | 1280 ft | 14 kts | 253° |
| 2026-05-05 15:42 | 48.69262 | 9.22728 | 1280 ft | 16 kts | 256° |
| 2026-05-05 15:42 | 48.69230 | 9.22555 | 1280 ft | 18 kts | 252° |
| 2026-05-05 15:43 | 48.69196 | 9.22362 | 1280 ft | 20 kts | 258° |
| 2026-05-05 15:43 | 48.69152 | 9.22154 | 1280 ft | 21 kts | 252° |
| 2026-05-05 15:43 | 48.69129 | 9.21991 | 1280 ft | 0 kts | 240° |
| 2026-05-05 15:43 | 48.69107 | 9.21856 | 1280 ft | 30 kts | 253° |
| 2026-05-05 15:44 | 48.69043 | 9.21572 | 1282 ft | 17 kts | 251° |
| 2026-05-05 15:44 | 48.69064 | 9.21415 | 1280 ft | 17 kts | 340° |
| 2026-05-05 15:44 | 48.69134 | 9.21304 | 1280 ft | 14 kts | 355° |
| 2026-05-05 15:44 | 48.69152 | 9.21298 | 1280 ft | 6 kts | 342° |
| 2026-05-05 15:45 | 48.69188 | 9.21246 | 1280 ft | 8 kts | 241° |
| 2026-05-05 15:45 | 48.69182 | 9.21240 | 1280 ft | 0 kts | 179° |